createdAt,value
2023-05-09T00:01:29.894Z,12.50
2023-05-09T00:03:57.300Z,12.50
2023-05-09T00:06:24.166Z,12.50
2023-05-09T00:08:51.408Z,12.50
2023-05-09T00:11:18.202Z,12.50
2023-05-09T00:13:45.383Z,12.50
2023-05-09T00:16:13.830Z,12.40
2023-05-09T00:18:42.487Z,12.50
2023-05-09T00:21:09.445Z,12.50
2023-05-09T00:23:36.576Z,12.50
2023-05-09T00:26:03.572Z,12.50
2023-05-09T00:28:30.746Z,12.40
2023-05-09T00:30:57.516Z,12.40
2023-05-09T00:33:27.226Z,12.30
2023-05-09T00:35:54.250Z,12.30
2023-05-09T00:38:22.642Z,12.30
2023-05-09T00:40:49.501Z,12.30
2023-05-09T00:43:17.155Z,12.20
2023-05-09T00:45:44.252Z,12.30
2023-05-09T00:48:11.862Z,12.20
2023-05-09T00:50:40.121Z,12.20
2023-05-09T00:53:07.873Z,12.20
2023-05-09T00:55:34.803Z,12.10
2023-05-09T00:58:03.159Z,12.10
2023-05-09T01:00:29.993Z,12.10
2023-05-09T01:02:57.465Z,12.00
2023-05-09T01:05:30.440Z,12.00
2023-05-09T01:08:07.716Z,12.00
2023-05-09T01:10:51.962Z,12.00
2023-05-09T01:13:26.699Z,11.90
2023-05-09T01:15:58.999Z,11.90
2023-05-09T01:18:33.662Z,11.90
2023-05-09T01:21:05.292Z,11.90
2023-05-09T01:23:57.044Z,11.80
2023-05-09T01:26:36.429Z,11.80
2023-05-09T01:29:23.309Z,11.70
2023-05-09T01:31:52.409Z,11.70
2023-05-09T01:34:22.879Z,11.70
2023-05-09T01:36:52.181Z,11.60
2023-05-09T01:39:20.855Z,11.60
2023-05-09T01:41:49.659Z,11.60
2023-05-09T01:44:18.886Z,11.60
2023-05-09T01:46:47.066Z,11.60
2023-05-09T01:49:15.088Z,11.60
2023-05-09T01:51:43.925Z,11.60
2023-05-09T01:54:12.954Z,11.60
2023-05-09T01:56:42.280Z,11.60
2023-05-09T01:59:13.860Z,11.60
2023-05-09T02:01:42.566Z,11.50
2023-05-09T02:04:10.471Z,11.60
2023-05-09T02:06:38.774Z,11.50
2023-05-09T02:09:06.248Z,11.50
2023-05-09T02:11:33.055Z,11.40
2023-05-09T02:14:00.640Z,11.50
2023-05-09T02:16:28.065Z,11.40
2023-05-09T02:18:56.801Z,11.40
2023-05-09T02:21:23.774Z,11.40
2023-05-09T02:23:51.153Z,11.40
2023-05-09T02:26:18.207Z,11.30
2023-05-09T02:28:46.990Z,11.30
2023-05-09T02:31:14.669Z,11.20
2023-05-09T02:33:43.259Z,11.20
2023-05-09T02:36:12.189Z,11.20
2023-05-09T02:38:39.580Z,11.20
2023-05-09T02:41:06.554Z,11.10
2023-05-09T02:43:33.749Z,11.10
2023-05-09T02:46:00.606Z,11.00
2023-05-09T02:48:27.944Z,11.00
2023-05-09T02:50:54.864Z,11.00
2023-05-09T02:53:23.136Z,10.90
2023-05-09T02:55:50.408Z,11.00
2023-05-09T02:58:17.297Z,10.90
2023-05-09T03:00:44.477Z,10.90
2023-05-09T03:03:11.596Z,10.90
2023-05-09T03:05:39.258Z,10.90
2023-05-09T03:08:06.686Z,10.80
2023-05-09T03:10:35.546Z,10.80
2023-05-09T03:13:02.608Z,10.80
2023-05-09T03:15:29.747Z,10.70
2023-05-09T03:17:56.531Z,10.70
2023-05-09T03:20:23.758Z,10.60
2023-05-09T03:22:50.583Z,10.60
2023-05-09T03:25:17.893Z,10.60
2023-05-09T03:27:46.231Z,10.60
2023-05-09T03:30:14.229Z,10.60
2023-05-09T03:32:41.375Z,10.60
2023-05-09T03:35:08.943Z,10.60
2023-05-09T03:37:35.845Z,10.50
2023-05-09T03:40:03.117Z,10.50
2023-05-09T03:42:30.144Z,10.50
2023-05-09T03:44:58.690Z,10.50
2023-05-09T03:47:25.884Z,10.50
2023-05-09T03:49:54.009Z,10.50
2023-05-09T03:52:21.098Z,10.40
2023-05-09T03:54:48.235Z,10.40
2023-05-09T03:57:15.096Z,10.40
2023-05-09T03:59:42.230Z,10.40
2023-05-09T04:02:11.035Z,10.40
2023-05-09T04:04:38.337Z,10.40
2023-05-09T04:07:05.217Z,10.40
2023-05-09T04:09:32.470Z,10.40
2023-05-09T04:11:59.321Z,10.40
2023-05-09T04:14:26.472Z,10.40
2023-05-09T04:16:53.333Z,10.40
2023-05-09T04:19:21.798Z,10.40
2023-05-09T04:21:48.590Z,10.50
2023-05-09T04:24:15.539Z,10.50
2023-05-09T04:26:42.467Z,10.50
2023-05-09T04:29:09.567Z,10.50
2023-05-09T04:31:36.581Z,10.50
2023-05-09T04:34:03.925Z,10.50
2023-05-09T04:36:33.731Z,10.50
2023-05-09T04:39:01.076Z,10.60
2023-05-09T04:41:27.993Z,10.60
2023-05-09T04:43:55.273Z,10.70
2023-05-09T04:46:24.990Z,10.70
2023-05-09T04:48:53.024Z,10.60
2023-05-09T04:51:20.606Z,10.70
2023-05-09T04:53:49.651Z,10.80
2023-05-09T04:56:16.962Z,10.90
2023-05-09T04:58:43.808Z,10.90
2023-05-09T05:01:10.715Z,10.90
2023-05-09T05:03:37.740Z,11.00
2023-05-09T05:06:04.892Z,11.00
2023-05-09T05:08:32.054Z,11.00
2023-05-09T05:11:00.169Z,11.10
2023-05-09T05:13:27.956Z,11.10
2023-05-09T05:15:54.872Z,11.10
2023-05-09T05:18:22.058Z,11.10
2023-05-09T05:20:48.878Z,11.30
2023-05-09T05:23:16.118Z,11.60
2023-05-09T05:25:42.918Z,11.80
2023-05-09T05:28:11.567Z,11.90
2023-05-09T05:30:39.884Z,11.90
2023-05-09T05:33:06.987Z,11.80
2023-05-09T05:35:33.785Z,11.70
2023-05-09T05:38:01.267Z,11.70
2023-05-09T05:40:28.124Z,11.60
2023-05-09T05:42:54.971Z,11.70
2023-05-09T05:45:23.292Z,11.80
2023-05-09T05:47:50.562Z,11.80
2023-05-09T05:50:17.987Z,11.80
2023-05-09T05:52:44.804Z,11.80
2023-05-09T05:55:12.132Z,11.90
2023-05-09T05:57:39.204Z,11.90
2023-05-09T06:00:11.554Z,12.00
2023-05-09T06:02:41.948Z,12.00
2023-05-09T06:05:09.738Z,12.20
2023-05-09T06:07:36.515Z,12.20
2023-05-09T06:10:04.585Z,12.30
2023-05-09T06:12:31.388Z,12.40
2023-05-09T06:14:58.612Z,12.50
2023-05-09T06:17:25.565Z,12.60
2023-05-09T06:19:53.713Z,12.70
2023-05-09T06:22:20.522Z,12.90
2023-05-09T06:24:47.688Z,12.90
2023-05-09T06:27:14.517Z,13.00
2023-05-09T06:29:41.669Z,13.00
2023-05-09T06:32:08.443Z,13.00
2023-05-09T06:34:35.559Z,13.00
2023-05-09T06:37:03.769Z,13.10
2023-05-09T06:39:31.135Z,13.20
2023-05-09T06:41:57.932Z,13.20
2023-05-09T06:44:24.816Z,13.20
2023-05-09T06:46:51.624Z,13.30
2023-05-09T06:49:18.714Z,13.40
2023-05-09T06:51:45.541Z,13.40
2023-05-09T06:54:13.925Z,13.60
2023-05-09T06:56:40.828Z,13.70
2023-05-09T06:59:07.907Z,13.70
2023-05-09T07:01:34.829Z,13.70
2023-05-09T07:04:02.227Z,13.80
2023-05-09T07:06:29.041Z,13.90
2023-05-09T07:08:56.344Z,14.00
2023-05-09T07:11:24.720Z,14.10
2023-05-09T07:13:51.528Z,14.20
2023-05-09T07:16:18.494Z,14.30
2023-05-09T07:18:47.063Z,14.20
2023-05-09T07:21:13.839Z,14.20
2023-05-09T07:23:41.174Z,14.30
2023-05-09T07:26:08.486Z,14.40
2023-05-09T07:28:37.080Z,14.50
2023-05-09T07:31:04.529Z,14.40
2023-05-09T07:33:31.712Z,14.50
2023-05-09T07:35:58.753Z,14.70
2023-05-09T07:38:26.307Z,14.90
2023-05-09T07:40:53.275Z,15.00
2023-05-09T07:43:20.424Z,15.10
2023-05-09T07:45:48.562Z,15.20
2023-05-09T07:48:15.776Z,15.30
2023-05-09T07:50:42.566Z,15.40
2023-05-09T07:53:09.673Z,15.50
2023-05-09T07:55:36.506Z,15.50
2023-05-09T07:58:03.737Z,15.60
2023-05-09T08:00:30.572Z,15.50
2023-05-09T08:02:59.143Z,15.50
2023-05-09T08:05:25.965Z,15.60
2023-05-09T08:07:52.841Z,15.70
2023-05-09T08:10:19.684Z,15.80
2023-05-09T08:12:46.838Z,15.80
2023-05-09T08:15:13.832Z,15.90
2023-05-09T08:17:41.210Z,16.10
2023-05-09T08:20:11.170Z,16.20
2023-05-09T08:22:39.468Z,16.10
2023-05-09T08:25:07.519Z,16.10
2023-05-09T08:27:34.849Z,16.20
2023-05-09T08:30:01.692Z,16.20
2023-05-09T08:32:29.015Z,16.30
2023-05-09T08:34:55.797Z,16.40
2023-05-09T08:37:24.281Z,16.60
2023-05-09T08:39:51.078Z,16.70
2023-05-09T08:42:25.467Z,16.70
2023-05-09T08:44:53.222Z,16.80
2023-05-09T08:47:21.556Z,16.90
2023-05-09T08:49:50.026Z,16.90
2023-05-09T08:52:17.350Z,16.80
2023-05-09T08:54:46.196Z,16.80
2023-05-09T08:57:14.204Z,17.00
2023-05-09T08:59:42.644Z,17.00
2023-05-09T09:02:14.208Z,17.00
2023-05-09T09:04:41.107Z,17.00
2023-05-09T09:07:10.115Z,17.30
2023-05-09T09:09:39.581Z,17.20
2023-05-09T09:12:10.011Z,17.20
2023-05-09T09:14:39.310Z,17.30
2023-05-09T09:17:09.507Z,17.30
2023-05-09T09:19:39.069Z,17.30
2023-05-09T09:22:06.874Z,17.30
2023-05-09T09:24:35.186Z,17.30
2023-05-09T09:27:07.780Z,17.30
2023-05-09T09:29:34.811Z,17.40
2023-05-09T09:32:03.326Z,17.40
2023-05-09T09:34:30.324Z,17.50
2023-05-09T09:36:58.060Z,17.60
2023-05-09T09:39:24.922Z,17.80
2023-05-09T09:41:52.134Z,17.90
2023-05-09T09:44:21.806Z,17.90
2023-05-09T09:46:53.219Z,18.00
2023-05-09T09:49:21.409Z,18.00
2023-05-09T09:51:52.878Z,18.00
2023-05-09T09:54:20.111Z,18.00
2023-05-09T09:56:48.664Z,18.00
2023-05-09T09:59:17.727Z,18.10
2023-05-09T10:02:07.700Z,18.30
2023-05-09T10:04:37.750Z,18.30
2023-05-09T10:07:06.851Z,18.30
2023-05-09T10:09:34.969Z,18.40
2023-05-09T10:12:03.998Z,18.50
2023-05-09T10:14:34.997Z,18.50
2023-05-09T10:17:05.555Z,18.60
2023-05-09T10:19:32.774Z,18.60
2023-05-09T10:22:04.315Z,18.70
2023-05-09T10:24:35.455Z,18.80
2023-05-09T10:27:05.981Z,18.80
2023-05-09T10:29:37.627Z,18.80
2023-05-09T10:32:15.458Z,18.70
2023-05-09T10:34:47.042Z,18.70
2023-05-09T10:37:14.406Z,18.80
2023-05-09T10:39:42.873Z,18.80
2023-05-09T10:42:10.619Z,18.90
2023-05-09T10:44:38.608Z,19.00
2023-05-09T10:47:07.575Z,19.00
2023-05-09T10:49:37.124Z,19.10
2023-05-09T10:52:04.562Z,19.10
2023-05-09T10:54:34.753Z,19.20
2023-05-09T10:57:01.592Z,19.30
2023-05-09T10:59:40.518Z,19.40
2023-05-09T11:02:15.357Z,19.30
2023-05-09T11:04:44.100Z,19.20
2023-05-09T11:07:24.594Z,19.30
2023-05-09T11:09:52.886Z,19.40
2023-05-09T11:12:21.569Z,19.60
2023-05-09T11:14:49.699Z,19.80
2023-05-09T11:17:30.823Z,19.80
2023-05-09T11:20:00.279Z,20.00
2023-05-09T11:22:28.757Z,20.30
2023-05-09T11:25:02.585Z,20.50
2023-05-09T11:27:30.288Z,20.60
2023-05-09T11:29:58.648Z,20.70
2023-05-09T11:32:32.767Z,21.10
2023-05-09T11:35:06.291Z,21.80
2023-05-09T11:37:33.874Z,21.90
2023-05-09T11:40:05.807Z,22.30
2023-05-09T11:42:33.160Z,22.70
2023-05-09T11:45:00.011Z,22.80
2023-05-09T11:47:29.623Z,22.90
2023-05-09T11:49:56.512Z,23.10
2023-05-09T11:52:23.917Z,23.20
2023-05-09T11:54:51.243Z,23.20
2023-05-09T11:57:18.224Z,23.50
2023-05-09T11:59:46.216Z,23.50
2023-05-09T12:02:13.587Z,23.40
2023-05-09T12:04:42.217Z,23.70
2023-05-09T12:07:11.920Z,23.90
2023-05-09T12:09:39.273Z,24.10
2023-05-09T12:12:11.462Z,24.10
2023-05-09T12:14:39.633Z,24.30
2023-05-09T12:17:06.872Z,24.70
2023-05-09T12:19:34.157Z,24.90
2023-05-09T12:22:03.791Z,25.10
2023-05-09T12:24:31.626Z,25.30
2023-05-09T12:26:59.739Z,25.10
2023-05-09T12:29:27.749Z,25.90
2023-05-09T12:31:55.310Z,26.00
2023-05-09T12:34:23.261Z,25.80
2023-05-09T12:36:53.429Z,26.20
2023-05-09T12:39:23.278Z,26.00
2023-05-09T12:42:00.972Z,25.80
2023-05-09T12:44:30.257Z,25.90
2023-05-09T12:46:58.617Z,26.10
2023-05-09T12:49:26.419Z,26.10
2023-05-09T12:51:55.022Z,26.40
2023-05-09T12:54:23.682Z,26.50
2023-05-09T12:56:53.788Z,26.10
2023-05-09T12:59:21.766Z,26.00
2023-05-09T13:01:53.912Z,25.60
2023-05-09T13:04:22.340Z,25.70
2023-05-09T13:06:50.822Z,25.90
2023-05-09T13:09:18.656Z,26.10
2023-05-09T13:11:47.737Z,26.30
2023-05-09T13:14:14.931Z,26.80
2023-05-09T13:16:42.141Z,26.80
2023-05-09T13:19:09.441Z,27.00
2023-05-09T13:21:36.952Z,27.40
2023-05-09T13:24:04.780Z,27.80
2023-05-09T13:26:31.931Z,26.80
2023-05-09T13:29:00.605Z,26.50
2023-05-09T13:31:27.581Z,26.70
2023-05-09T13:33:54.507Z,26.30
2023-05-09T13:36:21.470Z,26.50
2023-05-09T13:38:48.846Z,26.90
2023-05-09T13:41:20.321Z,26.80
2023-05-09T13:43:47.871Z,26.80
2023-05-09T13:46:16.151Z,26.90
2023-05-09T13:48:44.851Z,26.80
2023-05-09T13:51:11.811Z,26.90
2023-05-09T13:53:39.669Z,27.10
2023-05-09T13:56:09.245Z,27.20
2023-05-09T13:58:36.894Z,27.30
2023-05-09T14:01:03.926Z,27.60
2023-05-09T14:03:32.501Z,27.40
2023-05-09T14:05:59.792Z,27.00
2023-05-09T14:08:27.115Z,26.80
2023-05-09T14:10:54.641Z,27.20
2023-05-09T14:13:22.178Z,26.50
2023-05-09T14:15:49.298Z,26.60
2023-05-09T14:18:20.072Z,26.20
2023-05-09T14:20:49.181Z,26.20
2023-05-09T14:23:16.886Z,26.90
2023-05-09T14:25:43.767Z,26.30
2023-05-09T14:28:11.090Z,26.00
2023-05-09T14:30:38.251Z,25.60
2023-05-09T14:33:06.006Z,25.30
2023-05-09T14:35:34.240Z,25.30
2023-05-09T14:38:03.208Z,25.20
2023-05-09T14:40:31.884Z,25.70
2023-05-09T14:42:59.344Z,25.30
2023-05-09T14:45:26.478Z,25.10
2023-05-09T14:47:53.689Z,25.20
2023-05-09T14:50:21.509Z,25.10
2023-05-09T14:52:49.140Z,25.30
2023-05-09T14:55:17.660Z,25.50
2023-05-09T14:57:44.808Z,25.30
2023-05-09T15:00:21.232Z,25.00
2023-05-09T15:02:49.439Z,24.50
2023-05-09T15:05:16.813Z,24.00
2023-05-09T15:07:43.937Z,23.70
2023-05-09T15:10:11.135Z,23.50
2023-05-09T15:12:39.654Z,23.30
2023-05-09T15:15:14.102Z,23.30
2023-05-09T15:17:41.086Z,23.60
2023-05-09T15:20:08.541Z,24.00
2023-05-09T15:22:35.729Z,24.60
2023-05-09T15:25:05.411Z,24.60
2023-05-09T15:27:33.384Z,24.80
2023-05-09T15:30:01.554Z,24.60
2023-05-09T15:32:28.751Z,24.30
2023-05-09T15:34:55.643Z,23.80
2023-05-09T15:37:22.760Z,23.70
2023-05-09T15:39:49.602Z,23.40
2023-05-09T15:42:17.908Z,23.60
2023-05-09T15:44:47.158Z,23.50
2023-05-09T15:47:15.506Z,24.00
2023-05-09T15:49:42.334Z,24.00
2023-05-09T15:52:10.974Z,24.30
2023-05-09T15:54:38.033Z,24.70
2023-05-09T15:57:05.449Z,25.00
2023-05-09T15:59:32.357Z,24.90
2023-05-09T16:01:59.537Z,25.30
2023-05-09T16:04:27.782Z,25.80
2023-05-09T16:06:55.532Z,25.70
2023-05-09T16:09:22.316Z,25.70
2023-05-09T16:11:49.455Z,25.30
2023-05-09T16:14:16.347Z,25.10
2023-05-09T16:16:43.522Z,24.80
2023-05-09T16:19:10.641Z,24.70
2023-05-09T16:21:39.580Z,24.80
2023-05-09T16:24:07.814Z,24.60
2023-05-09T16:26:34.988Z,24.40
2023-05-09T16:29:02.374Z,24.00
2023-05-09T16:33:58.380Z,23.80
2023-05-09T16:36:25.754Z,24.00
2023-05-09T16:38:53.904Z,24.20
2023-05-09T16:41:20.697Z,24.70
2023-05-09T16:43:47.545Z,24.90
2023-05-09T16:46:14.655Z,24.30
2023-05-09T16:48:41.454Z,23.90
2023-05-09T16:51:08.646Z,23.80
2023-05-09T16:53:36.254Z,23.60
2023-05-09T16:56:06.392Z,23.20
2023-05-09T16:58:34.456Z,22.70
2023-05-09T17:01:03.240Z,22.30
2023-05-09T17:03:30.055Z,22.10
2023-05-09T17:05:56.881Z,22.20
2023-05-09T17:08:23.910Z,22.00
2023-05-09T17:10:50.988Z,21.80
2023-05-09T17:13:19.189Z,21.40
2023-05-09T17:15:46.460Z,21.10
2023-05-09T17:18:17.056Z,20.90
2023-05-09T17:20:46.547Z,20.70
2023-05-09T17:23:13.390Z,20.50
2023-05-09T17:25:40.202Z,20.40
2023-05-09T17:28:07.639Z,20.30
2023-05-09T17:30:35.977Z,20.20
2023-05-09T17:33:02.845Z,20.10
2023-05-09T17:35:30.316Z,19.90
2023-05-09T17:37:57.120Z,19.80
2023-05-09T17:40:24.390Z,19.80
2023-05-09T17:42:51.197Z,19.70
2023-05-09T17:45:18.151Z,19.70
2023-05-09T17:47:46.617Z,19.60
2023-05-09T17:50:17.490Z,19.60
2023-05-09T17:52:46.396Z,19.50
2023-05-09T17:55:13.616Z,19.40
2023-05-09T17:57:41.681Z,19.40
2023-05-09T18:00:09.511Z,19.40
2023-05-09T18:02:36.696Z,19.30
2023-05-09T18:05:05.727Z,19.30
2023-05-09T18:07:33.733Z,19.20
2023-05-09T18:10:00.814Z,19.20
2023-05-09T18:12:29.187Z,19.10
2023-05-09T18:14:56.002Z,19.00
2023-05-09T18:17:22.836Z,19.00
2023-05-09T18:19:50.046Z,19.00
2023-05-09T18:22:19.356Z,18.90
2023-05-09T18:24:46.133Z,18.80
2023-05-09T18:27:12.949Z,18.70
2023-05-09T18:29:39.736Z,18.70
2023-05-09T18:32:06.905Z,18.60
2023-05-09T18:34:33.806Z,18.50
2023-05-09T18:37:00.627Z,18.50
2023-05-09T18:39:28.853Z,18.40
2023-05-09T18:41:55.911Z,18.40
2023-05-09T18:44:22.740Z,18.30
2023-05-09T18:46:49.997Z,18.30
2023-05-09T18:49:17.476Z,18.30
2023-05-09T18:51:44.405Z,18.20
2023-05-09T18:54:13.048Z,18.10
2023-05-09T18:56:42.284Z,18.10
2023-05-09T18:59:11.955Z,18.00
2023-05-09T19:01:38.972Z,18.00
2023-05-09T19:04:06.974Z,17.90
2023-05-09T19:06:33.850Z,17.90
2023-05-09T19:09:03.062Z,17.90
2023-05-09T19:11:29.987Z,17.80
2023-05-09T19:13:58.448Z,17.80
2023-05-09T19:16:26.490Z,17.80
2023-05-09T19:18:55.842Z,17.70
2023-05-09T19:21:23.428Z,17.60
2023-05-09T19:23:50.535Z,17.60
2023-05-09T19:26:19.085Z,17.50
2023-05-09T19:28:46.784Z,17.50
2023-05-09T19:31:15.760Z,17.50
2023-05-09T19:33:45.543Z,17.50
2023-05-09T19:36:12.821Z,17.50
2023-05-09T19:38:39.845Z,17.40
2023-05-09T19:41:06.712Z,17.40
2023-05-09T19:43:33.845Z,17.40
2023-05-09T19:46:00.760Z,17.40
2023-05-09T19:48:29.078Z,17.30
2023-05-09T19:51:00.670Z,17.30
2023-05-09T19:53:28.051Z,17.30
2023-05-09T19:55:54.873Z,17.20
2023-05-09T19:58:21.711Z,17.30
2023-05-09T20:00:48.611Z,17.20
2023-05-09T20:03:15.749Z,17.20
2023-05-09T20:05:43.941Z,17.30
2023-05-09T20:08:10.908Z,17.20
2023-05-09T20:10:37.795Z,17.20
2023-05-09T20:13:05.051Z,17.20
2023-05-09T20:15:31.900Z,17.20
2023-05-09T20:17:58.915Z,17.20
2023-05-09T20:20:25.833Z,17.10
2023-05-09T20:22:56.989Z,17.10
2023-05-09T20:25:24.329Z,17.10
2023-05-09T20:27:51.258Z,17.10
2023-05-09T20:30:18.144Z,17.00
2023-05-09T20:32:45.041Z,17.00
2023-05-09T20:35:12.017Z,17.00
2023-05-09T20:37:39.662Z,17.00
2023-05-09T20:40:09.143Z,17.00
2023-05-09T20:42:36.110Z,17.00
2023-05-09T20:45:03.714Z,17.00
2023-05-09T20:47:30.918Z,17.00
2023-05-09T20:49:58.601Z,16.90
2023-05-09T20:52:26.073Z,16.90
2023-05-09T20:54:52.930Z,16.80
2023-05-09T20:57:21.541Z,16.80
2023-05-09T20:59:48.359Z,16.80
2023-05-09T21:02:15.571Z,16.70
2023-05-09T21:04:42.345Z,16.70
2023-05-09T21:07:10.397Z,16.70
2023-05-09T21:09:37.674Z,16.60
2023-05-09T21:12:05.218Z,16.60
2023-05-09T21:14:33.495Z,16.70
2023-05-09T21:17:00.837Z,16.70
2023-05-09T21:19:28.030Z,16.70
2023-05-09T21:21:55.526Z,16.70
2023-05-09T21:24:22.334Z,16.60
2023-05-09T21:26:49.444Z,16.50
2023-05-09T21:29:16.268Z,16.40
2023-05-09T21:31:44.813Z,16.30
2023-05-09T21:34:11.659Z,16.30
2023-05-09T21:36:38.981Z,16.20
2023-05-09T21:39:09.360Z,16.10
2023-05-09T21:41:37.196Z,16.00
2023-05-09T21:44:04.344Z,15.90
2023-05-09T21:46:32.418Z,15.80
2023-05-09T21:49:00.943Z,15.80
2023-05-09T21:51:28.770Z,15.80
2023-05-09T21:53:55.708Z,15.70
2023-05-09T21:56:23.097Z,15.60
2023-05-09T21:58:49.947Z,15.50
2023-05-09T22:01:18.835Z,15.50
2023-05-09T22:03:46.147Z,15.40
2023-05-09T22:06:14.882Z,15.40
2023-05-09T22:08:41.805Z,15.30
2023-05-09T22:11:09.131Z,15.30
2023-05-09T22:13:36.342Z,15.20
2023-05-09T22:16:04.209Z,15.20
2023-05-09T22:18:31.121Z,15.20
2023-05-09T22:20:58.412Z,15.20
2023-05-09T22:23:26.676Z,15.10
2023-05-09T22:25:53.997Z,15.10
2023-05-09T22:28:20.851Z,15.10
2023-05-09T22:30:48.009Z,15.00
2023-05-09T22:33:15.727Z,15.00
2023-05-09T22:35:42.905Z,15.00
2023-05-09T22:38:09.759Z,14.90
2023-05-09T22:40:38.337Z,14.90
2023-05-09T22:43:05.287Z,14.90
2023-05-09T22:45:32.561Z,14.90
2023-05-09T22:47:59.422Z,14.80
2023-05-09T22:50:26.469Z,14.90
2023-05-09T22:52:53.400Z,14.80
2023-05-09T22:55:20.782Z,14.90
2023-05-09T22:57:48.928Z,14.80
2023-05-09T23:00:17.143Z,14.70
2023-05-09T23:02:44.291Z,14.70
2023-05-09T23:05:11.441Z,14.70
2023-05-09T23:07:38.528Z,14.70
2023-05-09T23:10:05.945Z,14.60
2023-05-09T23:12:33.071Z,14.60
2023-05-09T23:15:01.772Z,14.60
2023-05-09T23:17:28.557Z,14.60
2023-05-09T23:19:55.814Z,14.60
2023-05-09T23:22:22.767Z,14.50
2023-05-09T23:24:49.852Z,14.50
2023-05-09T23:27:16.740Z,14.50
2023-05-09T23:29:43.834Z,14.50
2023-05-09T23:32:11.984Z,14.50
2023-05-09T23:34:39.253Z,14.50
2023-05-09T23:37:06.316Z,14.50
2023-05-09T23:39:33.657Z,14.40
2023-05-09T23:42:00.460Z,14.50
2023-05-09T23:44:27.565Z,14.50
2023-05-09T23:46:54.411Z,14.50
2023-05-09T23:49:22.669Z,14.50
2023-05-09T23:51:49.475Z,14.50
2023-05-09T23:54:16.871Z,14.40
2023-05-09T23:56:43.766Z,14.40
2023-05-09T23:59:10.950Z,14.40
